createdAt,value
2022-10-23T00:01:21.459Z,90328.19
2022-10-23T00:03:51.765Z,90331.56
2022-10-23T00:06:18.920Z,90324.19
2022-10-23T00:08:49.269Z,90329.50
2022-10-23T00:11:23.463Z,90325.19
2022-10-23T00:13:51.937Z,90321.06
2022-10-23T00:16:18.879Z,90319.47
2022-10-23T00:18:45.909Z,90320.19
2022-10-23T00:21:15.528Z,90328.00
2022-10-23T00:23:42.568Z,90338.09
2022-10-23T00:26:09.935Z,90330.81
2022-10-23T00:28:37.869Z,90326.66
2022-10-23T00:31:06.161Z,90330.28
2022-10-23T00:33:33.743Z,90323.97
2022-10-23T00:36:00.801Z,90321.63
2022-10-23T00:38:28.098Z,90322.22
2022-10-23T00:40:55.105Z,90326.13
2022-10-23T00:43:27.169Z,90314.13
2022-10-23T00:45:54.133Z,90315.66
2022-10-23T00:48:21.959Z,90323.91
2022-10-23T00:50:50.740Z,90320.66
2022-10-23T00:53:21.391Z,90319.72
2022-10-23T00:55:51.909Z,90318.72
2022-10-23T00:58:21.149Z,90311.28
2022-10-23T01:00:54.812Z,90317.88
2022-10-23T01:03:25.373Z,90309.44
2022-10-23T01:06:07.540Z,90308.34
2022-10-23T01:08:50.443Z,90315.63
2022-10-23T01:11:43.616Z,90307.88
2022-10-23T01:14:23.602Z,90309.91
2022-10-23T01:16:50.450Z,90308.53
2022-10-23T01:19:27.715Z,90310.66
2022-10-23T01:22:26.624Z,90301.13
2022-10-23T01:25:02.362Z,90303.53
2022-10-23T01:27:40.260Z,90289.75
2022-10-23T01:30:11.585Z,90296.31
2022-10-23T01:33:15.464Z,90298.06
2022-10-23T01:35:58.192Z,90288.63
2022-10-23T01:38:32.716Z,90297.03
2022-10-23T01:41:04.903Z,90293.97
2022-10-23T01:43:45.275Z,90286.56
2022-10-23T01:46:16.642Z,90287.69
2022-10-23T01:48:51.470Z,90283.94
2022-10-23T01:51:20.940Z,90294.91
2022-10-23T01:53:50.869Z,90291.03
2022-10-23T01:56:22.829Z,90289.25
2022-10-23T01:58:53.156Z,90297.31
2022-10-23T02:01:23.979Z,90290.28
2022-10-23T02:03:52.376Z,90292.84
2022-10-23T02:06:19.711Z,90288.03
2022-10-23T02:08:47.099Z,90297.19
2022-10-23T02:11:17.015Z,90305.56
2022-10-23T02:13:55.131Z,90303.03
2022-10-23T02:16:48.428Z,90303.97
2022-10-23T02:19:21.444Z,90308.81
2022-10-23T02:21:53.964Z,90308.06
2022-10-23T02:24:43.648Z,90304.09
2022-10-23T02:27:13.995Z,90302.78
2022-10-23T02:30:04.430Z,90307.53
2022-10-23T02:32:32.201Z,90303.84
2022-10-23T02:34:59.773Z,90299.47
2022-10-23T02:37:26.956Z,90307.16
2022-10-23T02:39:55.433Z,90301.00
2022-10-23T02:42:38.623Z,90309.22
2022-10-23T02:45:13.655Z,90312.03
2022-10-23T02:47:59.851Z,90306.28
2022-10-23T02:50:53.483Z,90311.38
2022-10-23T02:53:42.377Z,90310.34
2022-10-23T02:56:11.559Z,90309.88
2022-10-23T02:58:41.134Z,90302.81
2022-10-23T03:01:18.668Z,90301.41
2022-10-23T03:03:52.835Z,90307.34
2022-10-23T03:06:20.661Z,90294.63
2022-10-23T03:09:05.127Z,90305.34
2022-10-23T03:11:32.249Z,90306.50
2022-10-23T03:13:59.814Z,90303.38
2022-10-23T03:16:27.705Z,90303.38
2022-10-23T03:18:55.024Z,90299.44
2022-10-23T03:21:22.299Z,90298.97
2022-10-23T03:23:49.245Z,90302.28
2022-10-23T03:26:16.392Z,90300.41
2022-10-23T03:28:43.539Z,90298.09
2022-10-23T03:31:10.428Z,90293.66
2022-10-23T03:33:37.396Z,90296.53
2022-10-23T03:36:04.498Z,90290.38
2022-10-23T03:38:31.696Z,90289.97
2022-10-23T03:40:58.582Z,90287.22
2022-10-23T03:43:25.436Z,90286.47
2022-10-23T03:45:53.310Z,90291.59
2022-10-23T03:48:20.189Z,90292.25
2022-10-23T03:50:47.056Z,90284.84
2022-10-23T03:53:13.994Z,90287.31
2022-10-23T03:55:41.115Z,90289.28
2022-10-23T03:58:09.083Z,90284.34
2022-10-23T04:00:36.042Z,90295.56
2022-10-23T04:03:05.618Z,90296.94
2022-10-23T04:05:32.866Z,90298.81
2022-10-23T04:07:59.703Z,90291.50
2022-10-23T04:10:26.596Z,90288.03
2022-10-23T04:12:53.549Z,90298.03
2022-10-23T04:15:20.496Z,90296.38
2022-10-23T04:17:47.539Z,90299.53
2022-10-23T04:20:14.701Z,90292.56
2022-10-23T04:22:41.968Z,90295.28
2022-10-23T04:25:09.642Z,90291.38
2022-10-23T04:27:36.609Z,90300.16
2022-10-23T04:30:04.221Z,90291.63
2022-10-23T04:32:31.199Z,90306.91
2022-10-23T04:34:58.056Z,90310.41
2022-10-23T04:37:24.955Z,90304.38
2022-10-23T04:39:51.978Z,90298.44
2022-10-23T04:42:18.907Z,90297.38
2022-10-23T04:44:45.771Z,90299.19
2022-10-23T04:47:12.739Z,90299.41
2022-10-23T04:49:39.639Z,90313.34
2022-10-23T04:52:06.558Z,90318.94
2022-10-23T04:54:38.034Z,90299.28
2022-10-23T04:57:05.023Z,90303.09
2022-10-23T04:59:31.811Z,90302.75
2022-10-23T05:01:58.819Z,90310.56
2022-10-23T05:04:25.850Z,90322.75
2022-10-23T05:06:52.780Z,90307.63
2022-10-23T05:09:22.717Z,90315.03
2022-10-23T05:11:52.218Z,90310.41
2022-10-23T05:14:22.972Z,90310.72
2022-10-23T05:17:00.497Z,90304.81
2022-10-23T05:19:38.035Z,90312.09
2022-10-23T05:22:06.041Z,90312.81
2022-10-23T05:24:34.763Z,90310.41
2022-10-23T05:27:02.045Z,90300.09
2022-10-23T05:29:29.367Z,90302.91
2022-10-23T05:32:01.414Z,90301.38
2022-10-23T05:34:31.142Z,90308.63
2022-10-23T05:36:58.402Z,90312.03
2022-10-23T05:39:25.441Z,90307.84
2022-10-23T05:41:52.391Z,90316.47
2022-10-23T05:44:19.330Z,90306.69
2022-10-23T05:46:46.292Z,90320.13
2022-10-23T05:49:13.752Z,90306.53
2022-10-23T05:51:41.008Z,90307.75
2022-10-23T05:54:08.834Z,90314.75
2022-10-23T05:56:37.506Z,90305.34
2022-10-23T05:59:04.990Z,90303.72
2022-10-23T06:01:32.060Z,90310.59
2022-10-23T06:04:16.111Z,90316.38
2022-10-23T06:06:46.123Z,90311.16
2022-10-23T06:09:16.214Z,90306.63
2022-10-23T06:11:43.493Z,90315.53
2022-10-23T06:14:13.661Z,90303.28
2022-10-23T06:16:43.608Z,90309.19
2022-10-23T06:19:14.266Z,90317.16
2022-10-23T06:21:41.926Z,90310.03
2022-10-23T06:24:09.373Z,90316.13
2022-10-23T06:26:39.038Z,90313.00
2022-10-23T06:29:10.937Z,90315.09
2022-10-23T06:31:41.225Z,90307.72
2022-10-23T06:34:13.812Z,90314.34
2022-10-23T06:36:40.919Z,90310.06
2022-10-23T06:39:07.886Z,90312.59
2022-10-23T06:41:37.765Z,90314.34
2022-10-23T06:44:05.214Z,90311.97
2022-10-23T06:46:38.409Z,90319.06
2022-10-23T06:49:05.348Z,90309.31
2022-10-23T06:51:35.276Z,90305.09
2022-10-23T06:54:02.331Z,90313.41
2022-10-23T06:56:29.270Z,90319.25
2022-10-23T06:58:56.300Z,90305.34
2022-10-23T07:01:23.480Z,90309.13
2022-10-23T07:03:50.606Z,90310.25
2022-10-23T07:06:17.900Z,90299.22
2022-10-23T07:08:47.984Z,90303.72
2022-10-23T07:11:15.006Z,90311.09
2022-10-23T07:13:41.867Z,90300.31
2022-10-23T07:16:16.587Z,90316.03
2022-10-23T07:18:44.134Z,90312.13
2022-10-23T07:21:11.247Z,90305.88
2022-10-23T07:23:38.550Z,90301.66
2022-10-23T07:26:16.057Z,90316.59
2022-10-23T07:28:47.713Z,90317.38
2022-10-23T07:31:14.857Z,90307.28
2022-10-23T07:33:42.080Z,90298.91
2022-10-23T07:36:11.608Z,90293.72
2022-10-23T07:38:38.912Z,90297.72
2022-10-23T07:41:08.927Z,90305.91
2022-10-23T07:43:41.621Z,90304.97
2022-10-23T07:46:08.866Z,90302.59
2022-10-23T07:48:37.617Z,90309.78
2022-10-23T07:51:16.237Z,90306.47
2022-10-23T07:53:44.511Z,90302.84
2022-10-23T07:56:17.695Z,90307.19
2022-10-23T07:58:44.951Z,90301.69
2022-10-23T08:01:32.581Z,90298.69
2022-10-23T08:04:00.375Z,90302.31
2022-10-23T08:06:27.415Z,90309.31
2022-10-23T08:08:54.452Z,90300.03
2022-10-23T08:11:24.470Z,90304.84
2022-10-23T08:13:53.136Z,90312.59
2022-10-23T08:16:20.726Z,90290.78
2022-10-23T08:18:47.878Z,90297.53
2022-10-23T08:21:14.785Z,90292.25
2022-10-23T08:23:42.377Z,90285.66
2022-10-23T08:26:10.649Z,90292.91
2022-10-23T08:28:38.310Z,90281.09
2022-10-23T08:31:14.474Z,90300.06
2022-10-23T08:33:41.677Z,90290.59
2022-10-23T08:36:24.463Z,90269.41
2022-10-23T08:38:53.713Z,90283.41
2022-10-23T08:41:38.729Z,90276.47
2022-10-23T08:44:27.172Z,90271.38
2022-10-23T08:47:06.950Z,90275.06
2022-10-23T08:49:49.749Z,90271.03
2022-10-23T08:52:25.969Z,90267.59
2022-10-23T08:55:03.167Z,90269.41
2022-10-23T08:57:40.120Z,90266.72
2022-10-23T09:00:15.429Z,90273.63
2022-10-23T09:02:48.823Z,90265.19
2022-10-23T09:05:37.027Z,90279.72
2022-10-23T09:08:19.100Z,90273.03
2022-10-23T09:11:02.491Z,90269.69
2022-10-23T09:13:32.795Z,90266.34
2022-10-23T09:16:31.696Z,90265.84
2022-10-23T09:18:59.449Z,90253.09
2022-10-23T09:21:32.838Z,90253.69
2022-10-23T09:24:02.321Z,90252.56
2022-10-23T09:26:29.225Z,90245.94
2022-10-23T09:29:08.515Z,90254.22
2022-10-23T09:31:35.586Z,90238.81
2022-10-23T09:34:02.709Z,90249.03
2022-10-23T09:36:33.486Z,90238.69
2022-10-23T09:39:25.329Z,90241.09
2022-10-23T09:41:56.326Z,90237.44
2022-10-23T09:44:31.724Z,90233.66
2022-10-23T09:47:20.221Z,90211.59
2022-10-23T09:49:53.832Z,90219.75
2022-10-23T09:52:54.361Z,90217.84
2022-10-23T09:55:24.671Z,90225.22
2022-10-23T09:57:54.002Z,90214.81
2022-10-23T10:00:24.404Z,90212.13
2022-10-23T10:03:06.684Z,90215.88
2022-10-23T10:05:35.080Z,90208.97
2022-10-23T10:08:05.842Z,90210.53
2022-10-23T10:10:40.492Z,90199.34
2022-10-23T10:13:35.044Z,90203.47
2022-10-23T10:16:28.232Z,90194.34
2022-10-23T10:19:21.184Z,90194.59
2022-10-23T10:22:01.127Z,90185.75
2022-10-23T10:25:05.456Z,90191.66
2022-10-23T10:27:38.559Z,90188.38
2022-10-23T10:30:37.912Z,90185.00
2022-10-23T10:33:22.578Z,90181.44
2022-10-23T10:36:02.477Z,90164.97
2022-10-23T10:38:41.681Z,90172.44
2022-10-23T10:41:17.844Z,90166.13
2022-10-23T10:44:12.831Z,90169.53
2022-10-23T10:46:49.100Z,90158.63
2022-10-23T10:49:18.817Z,90160.09
2022-10-23T10:52:01.036Z,90155.19
2022-10-23T10:54:49.924Z,90157.69
2022-10-23T10:57:37.663Z,90149.25
2022-10-23T11:00:14.219Z,90155.97
2022-10-23T11:02:50.771Z,90155.59
2022-10-23T11:05:39.203Z,90134.56
2022-10-23T11:08:14.973Z,90143.09
2022-10-23T11:10:46.614Z,90141.72
2022-10-23T11:13:38.342Z,90129.03
2022-10-23T11:16:23.125Z,90125.41
2022-10-23T11:19:21.056Z,90126.16
2022-10-23T11:22:18.851Z,90115.28
2022-10-23T11:25:23.220Z,90118.66
2022-10-23T11:28:20.887Z,90122.81
2022-10-23T11:31:12.335Z,90111.00
2022-10-23T11:34:13.640Z,90111.00
2022-10-23T11:36:53.068Z,90107.59
2022-10-23T11:39:25.038Z,90115.66
2022-10-23T11:41:58.226Z,90113.91
2022-10-23T11:44:39.261Z,90117.25
2022-10-23T11:47:45.868Z,90106.78
2022-10-23T11:50:14.029Z,90107.47
2022-10-23T11:53:13.698Z,90098.97
2022-10-23T11:56:01.470Z,90099.47
2022-10-23T11:58:48.407Z,90087.09
2022-10-23T12:01:22.812Z,90086.63
2022-10-23T12:04:21.022Z,90082.69
2022-10-23T12:06:52.903Z,90085.59
2022-10-23T12:09:44.040Z,90089.28
2022-10-23T12:12:10.929Z,90086.56
2022-10-23T12:14:45.283Z,90060.41
2022-10-23T12:17:39.710Z,90047.72
2022-10-23T12:20:09.434Z,90059.41
2022-10-23T12:22:42.500Z,90070.69
2022-10-23T12:25:15.907Z,90066.84
2022-10-23T12:28:25.943Z,90079.97
2022-10-23T12:31:26.566Z,90078.28
2022-10-23T12:33:53.615Z,90078.81
2022-10-23T12:36:20.613Z,90074.19
2022-10-23T12:38:49.256Z,90089.31
2022-10-23T12:41:28.344Z,90083.22
2022-10-23T12:44:10.414Z,90082.72
2022-10-23T12:46:41.441Z,90077.34
2022-10-23T12:49:20.051Z,90095.41
2022-10-23T12:51:56.163Z,90086.88
2022-10-23T12:54:23.843Z,90090.25
2022-10-23T12:56:51.344Z,90083.91
2022-10-23T12:59:25.056Z,90093.16
2022-10-23T13:01:53.197Z,90088.75
2022-10-23T13:04:29.737Z,90088.75
2022-10-23T13:07:01.834Z,90067.00
2022-10-23T13:09:33.760Z,90071.19
2022-10-23T13:12:03.619Z,90074.84
2022-10-23T13:14:35.137Z,90072.66
2022-10-23T13:17:05.432Z,90078.03
2022-10-23T13:19:33.037Z,90073.63
2022-10-23T13:22:01.518Z,90057.78
2022-10-23T13:24:30.073Z,90057.28
2022-10-23T13:26:58.394Z,90052.19
2022-10-23T13:29:34.890Z,90052.91
2022-10-23T13:32:24.790Z,90053.63
2022-10-23T13:35:03.763Z,90053.34
2022-10-23T13:37:31.417Z,90045.28
2022-10-23T13:40:06.639Z,90043.59
2022-10-23T13:42:33.665Z,90050.44
2022-10-23T13:45:00.677Z,90039.22
2022-10-23T13:47:27.973Z,90037.03
2022-10-23T13:49:54.981Z,90032.41
2022-10-23T13:52:23.343Z,90037.75
2022-10-23T13:54:50.753Z,90024.09
2022-10-23T13:57:18.400Z,90018.47
2022-10-23T13:59:45.342Z,90022.06
2022-10-23T14:02:22.111Z,90028.91
2022-10-23T14:04:50.875Z,90036.94
2022-10-23T14:07:18.147Z,90011.06
2022-10-23T14:09:45.789Z,90030.03
2022-10-23T14:12:12.984Z,90040.75
2022-10-23T14:14:42.317Z,90029.88
2022-10-23T14:17:09.397Z,90044.25
2022-10-23T14:22:04.169Z,90041.81
2022-10-23T14:24:31.216Z,90046.88
2022-10-23T14:26:58.162Z,90055.22
2022-10-23T14:29:25.299Z,90055.25
2022-10-23T14:31:52.471Z,90045.78
2022-10-23T14:34:19.685Z,90046.97
2022-10-23T14:36:50.221Z,90050.41
2022-10-23T14:39:18.555Z,90048.69
2022-10-23T14:41:45.608Z,90039.69
2022-10-23T14:44:12.815Z,90034.31
2022-10-23T14:46:40.070Z,90037.25
2022-10-23T14:49:07.332Z,90034.28
2022-10-23T14:51:34.433Z,90032.81
2022-10-23T14:54:10.169Z,90036.50
2022-10-23T14:56:41.799Z,90037.69
2022-10-23T14:59:11.828Z,90035.22
2022-10-23T15:01:43.815Z,90054.19
2022-10-23T15:04:15.073Z,90054.13
2022-10-23T15:06:42.686Z,90061.22
2022-10-23T15:09:09.965Z,90057.03
2022-10-23T15:11:37.188Z,90062.38
2022-10-23T15:14:04.349Z,90062.91
2022-10-23T15:16:31.629Z,90064.91
2022-10-23T15:18:59.375Z,90062.22
2022-10-23T15:21:26.502Z,90061.69
2022-10-23T15:23:53.535Z,90069.53
2022-10-23T15:26:21.752Z,90074.66
2022-10-23T15:28:57.344Z,90082.44
2022-10-23T15:31:30.295Z,90077.09
2022-10-23T15:33:57.832Z,90084.13
2022-10-23T15:36:25.422Z,90076.22
2022-10-23T15:38:52.965Z,90083.19
2022-10-23T15:41:31.565Z,90085.13
2022-10-23T15:44:00.227Z,90076.56
2022-10-23T15:46:27.693Z,90087.00
2022-10-23T15:48:54.852Z,90096.22
2022-10-23T15:51:21.940Z,90093.94
2022-10-23T15:53:49.058Z,90093.88
2022-10-23T15:56:16.076Z,90089.44
2022-10-23T15:58:43.385Z,90095.75
2022-10-23T16:01:10.657Z,90092.28
2022-10-23T16:03:39.026Z,90111.34
2022-10-23T16:06:10.628Z,90099.84
2022-10-23T16:08:38.142Z,90105.72
2022-10-23T16:11:20.179Z,90113.50
2022-10-23T16:13:48.872Z,90112.66
2022-10-23T16:16:20.429Z,90108.03
2022-10-23T16:18:47.813Z,90116.34
2022-10-23T16:21:23.691Z,90108.50
2022-10-23T16:23:55.222Z,90108.47
2022-10-23T16:26:24.490Z,90121.88
2022-10-23T16:29:00.882Z,90122.06
2022-10-23T16:31:29.185Z,90123.47
2022-10-23T16:34:00.498Z,90124.50
2022-10-23T16:36:28.506Z,90126.88
2022-10-23T16:38:56.039Z,90125.88
2022-10-23T16:41:23.074Z,90136.22
2022-10-23T16:43:50.572Z,90126.88
2022-10-23T16:46:22.088Z,90134.69
2022-10-23T16:48:51.905Z,90151.94
2022-10-23T16:51:22.146Z,90138.88
2022-10-23T16:53:49.657Z,90144.03
2022-10-23T16:56:19.361Z,90139.56
2022-10-23T16:58:46.274Z,90141.41
2022-10-23T17:01:22.537Z,90137.41
2022-10-23T17:03:51.351Z,90135.25
2022-10-23T17:06:22.143Z,90133.09
2022-10-23T17:08:49.841Z,90133.25
2022-10-23T17:11:24.844Z,90124.63
2022-10-23T17:13:58.487Z,90126.06
2022-10-23T17:16:37.464Z,90126.31
2022-10-23T17:19:15.898Z,90130.06
2022-10-23T17:21:48.073Z,90130.72
2022-10-23T17:24:15.049Z,90123.09
2022-10-23T17:26:42.885Z,90125.25
2022-10-23T17:29:11.079Z,90121.59
2022-10-23T17:31:41.416Z,90122.47
2022-10-23T17:34:12.665Z,90135.81
2022-10-23T17:36:43.093Z,90131.06
2022-10-23T17:39:12.860Z,90132.88
2022-10-23T17:41:40.302Z,90136.53
2022-10-23T17:44:07.392Z,90126.84
2022-10-23T17:46:34.591Z,90132.94
2022-10-23T17:49:03.571Z,90137.75
2022-10-23T17:51:33.027Z,90120.50
2022-10-23T17:54:02.056Z,90132.06
2022-10-23T17:56:31.312Z,90139.44
2022-10-23T17:59:12.019Z,90141.50
2022-10-23T18:01:39.623Z,90131.81
2022-10-23T18:04:11.447Z,90148.25
2022-10-23T18:06:44.944Z,90146.88
2022-10-23T18:09:12.342Z,90147.03
2022-10-23T18:11:45.318Z,90136.16
2022-10-23T18:14:15.932Z,90152.53
2022-10-23T18:16:44.953Z,90147.69
2022-10-23T18:19:11.902Z,90138.88
2022-10-23T18:21:41.144Z,90146.28
2022-10-23T18:24:08.625Z,90153.69
2022-10-23T18:26:36.353Z,90161.25
2022-10-23T18:29:05.198Z,90151.28
2022-10-23T18:31:32.112Z,90158.88
2022-10-23T18:34:02.199Z,90152.78
2022-10-23T18:36:33.447Z,90163.19
2022-10-23T18:39:00.824Z,90163.13
2022-10-23T18:41:28.172Z,90163.13
2022-10-23T18:43:55.533Z,90144.81
2022-10-23T18:46:22.776Z,90160.75
2022-10-23T18:48:50.537Z,90164.69
2022-10-23T18:51:20.555Z,90163.56
2022-10-23T18:53:47.953Z,90164.63
2022-10-23T18:56:16.437Z,90155.16
2022-10-23T18:58:43.339Z,90157.81
2022-10-23T19:01:10.439Z,90161.03
2022-10-23T19:03:37.386Z,90163.25
2022-10-23T19:06:06.834Z,90155.31
2022-10-23T19:08:37.176Z,90165.81
2022-10-23T19:11:17.485Z,90157.09
2022-10-23T19:13:44.714Z,90157.34
2022-10-23T19:16:36.108Z,90164.97
2022-10-23T19:19:14.131Z,90161.22
2022-10-23T19:21:48.104Z,90158.84
2022-10-23T19:24:32.168Z,90148.53
2022-10-23T19:27:06.683Z,90156.44
2022-10-23T19:29:33.940Z,90160.31
2022-10-23T19:32:01.003Z,90149.25
2022-10-23T19:34:28.133Z,90151.28
2022-10-23T19:36:55.147Z,90154.84
2022-10-23T19:39:22.962Z,90160.13
2022-10-23T19:41:50.324Z,90158.84
2022-10-23T19:44:17.885Z,90172.28
2022-10-23T19:46:45.200Z,90154.44
2022-10-23T19:49:13.106Z,90157.00
2022-10-23T19:51:48.262Z,90159.41
2022-10-23T19:54:18.259Z,90169.50
2022-10-23T19:56:45.837Z,90148.16
2022-10-23T19:59:13.073Z,90154.59
2022-10-23T20:01:43.866Z,90163.34
2022-10-23T20:04:13.508Z,90160.19
2022-10-23T20:06:40.660Z,90163.63
2022-10-23T20:09:09.118Z,90151.84
2022-10-23T20:11:38.774Z,90149.19
2022-10-23T20:14:06.607Z,90144.13
2022-10-23T20:16:36.506Z,90160.41
2022-10-23T20:19:08.524Z,90151.03
2022-10-23T20:21:37.061Z,90158.19
2022-10-23T20:24:04.397Z,90157.56
2022-10-23T20:26:31.390Z,90156.94
2022-10-23T20:28:58.609Z,90159.94
2022-10-23T20:31:27.241Z,90158.19
2022-10-23T20:33:54.975Z,90160.59
2022-10-23T20:36:34.350Z,90163.09
2022-10-23T20:39:10.763Z,90155.19
2022-10-23T20:41:38.672Z,90167.13
2022-10-23T20:44:08.794Z,90160.13
2022-10-23T20:46:36.008Z,90167.69
2022-10-23T20:49:03.346Z,90169.69
2022-10-23T20:51:30.717Z,90167.22
2022-10-23T20:53:59.582Z,90155.88
2022-10-23T20:56:32.946Z,90167.41
2022-10-23T20:59:11.156Z,90175.88
2022-10-23T21:01:41.806Z,90170.25
2022-10-23T21:04:11.231Z,90162.53
2022-10-23T21:06:57.480Z,90155.56
2022-10-23T21:09:30.635Z,90173.31
2022-10-23T21:11:58.018Z,90156.44
2022-10-23T21:14:25.168Z,90159.69
2022-10-23T21:16:52.603Z,90153.03
2022-10-23T21:19:22.199Z,90152.47
2022-10-23T21:21:49.267Z,90147.47
2022-10-23T21:24:17.741Z,90160.41
2022-10-23T21:26:45.925Z,90152.97
2022-10-23T21:29:18.388Z,90145.28
2022-10-23T21:31:46.364Z,90148.78
2022-10-23T21:34:13.705Z,90151.78
2022-10-23T21:36:54.083Z,90149.22
2022-10-23T21:39:28.831Z,90149.59
2022-10-23T21:41:55.852Z,90150.91
2022-10-23T21:44:22.824Z,90141.41
2022-10-23T21:46:50.308Z,90147.69
2022-10-23T21:49:17.502Z,90149.59
2022-10-23T21:51:44.550Z,90145.75
2022-10-23T21:54:14.599Z,90143.81
2022-10-23T21:56:47.395Z,90133.81
2022-10-23T21:59:17.870Z,90148.09
2022-10-23T22:01:47.137Z,90153.88
2022-10-23T22:04:16.301Z,90152.03
2022-10-23T22:06:44.417Z,90157.25
2022-10-23T22:09:17.138Z,90159.44
2022-10-23T22:11:44.076Z,90156.97
2022-10-23T22:14:15.117Z,90165.53
2022-10-23T22:16:42.361Z,90173.03
2022-10-23T22:19:11.984Z,90170.09
2022-10-23T22:21:39.761Z,90161.81
2022-10-23T22:24:07.003Z,90173.31
2022-10-23T22:26:43.376Z,90180.84
2022-10-23T22:29:19.449Z,90179.94
2022-10-23T22:31:48.873Z,90174.44
2022-10-23T22:34:47.941Z,90180.66
2022-10-23T22:37:11.149Z,90180.72
2022-10-23T22:39:38.598Z,90176.88
2022-10-23T22:42:05.814Z,90179.53
2022-10-23T22:44:32.930Z,90178.28
2022-10-23T22:47:00.399Z,90190.38
2022-10-23T22:49:27.597Z,90178.66
2022-10-23T22:51:54.578Z,90173.75
2022-10-23T22:54:21.337Z,90183.06
2022-10-23T22:56:48.205Z,90182.44
2022-10-23T22:59:15.139Z,90166.66
2022-10-23T23:01:45.632Z,90178.03
2022-10-23T23:04:32.921Z,90164.53
2022-10-23T23:07:00.560Z,90175.31
2022-10-23T23:09:28.504Z,90168.97
2022-10-23T23:11:55.289Z,90173.81
2022-10-23T23:14:24.082Z,90181.53
2022-10-23T23:16:52.936Z,90172.13
2022-10-23T23:19:20.601Z,90183.13
2022-10-23T23:21:48.172Z,90184.31
2022-10-23T23:24:17.991Z,90187.09
2022-10-23T23:26:44.917Z,90191.41
2022-10-23T23:29:12.297Z,90185.78
2022-10-23T23:31:39.274Z,90194.53
2022-10-23T23:34:06.459Z,90183.28
2022-10-23T23:36:34.010Z,90183.75
2022-10-23T23:39:01.474Z,90173.97
2022-10-23T23:41:29.679Z,90175.16
2022-10-23T23:43:58.356Z,90176.03
2022-10-23T23:46:25.445Z,90176.34
2022-10-23T23:48:52.490Z,90174.56
2022-10-23T23:51:23.096Z,90174.53
2022-10-23T23:53:50.621Z,90177.09
2022-10-23T23:56:19.168Z,90172.19
2022-10-23T23:58:46.734Z,90168.78
